Time;durP1;ratioP1;P1;durP2;ratioP2;P2;SDS_P1;SDS_P2;PMS_P1;PMS_P2;Temp;Humidity;BMP_temperature;BMP_pressure;BME280_temperature;BME280_humidity;BME280_pressure;Samples;Min_cycle;Max_cycle;Signal;HPM_P1;HPM_P2
2022/01/07 00:02:15;;;;;;;15.60;4.83;;;0.10;1.00;;;;;;5052889;28;20225;-80
2022/01/07 00:04:41;;;;;;;12.43;5.55;;;0.00;1.00;;;;;;5052549;28;20171;-81
2022/01/07 00:07:45;;;;;;;17.27;4.70;;;0.10;1.00;;;;;;5060001;28;20189;-80
2022/01/07 00:10:13;;;;;;;7.40;4.70;;;0.10;1.00;;;;;;5033640;28;20395;-80
2022/01/07 00:12:39;;;;;;;6.50;4.38;;;0.10;1.00;;;;;;5057496;28;20585;-80
2022/01/07 00:15:16;;;;;;;9.67;4.30;;;0.10;1.00;;;;;;5072189;28;20203;-80
2022/01/07 00:17:43;;;;;;;10.82;5.25;;;0.00;1.00;;;;;;5060633;28;20171;-80
2022/01/07 00:20:11;;;;;;;13.40;5.00;;;0.00;1.00;;;;;;5055894;28;20646;-80
2022/01/07 00:22:41;;;;;;;7.50;4.47;;;0.00;1.00;;;;;;5052463;28;20270;-80
2022/01/07 00:25:16;;;;;;;9.95;5.40;;;0.00;1.00;;;;;;5053250;28;20625;-80
2022/01/07 00:27:45;;;;;;;14.70;5.00;;;-0.10;1.00;;;;;;5051827;28;20254;-80
2022/01/07 00:30:16;;;;;;;8.50;5.20;;;-0.10;1.00;;;;;;5053149;28;20168;-80
2022/01/07 00:32:46;;;;;;;9.70;4.95;;;0.00;1.00;;;;;;5053917;28;20195;-80
2022/01/07 00:35:16;;;;;;;11.55;5.32;;;0.00;1.00;;;;;;5052681;28;20218;-80
2022/01/07 00:37:57;;;;;;;10.05;5.28;;;-0.10;1.00;;;;;;5052812;28;20168;-80
2022/01/07 00:40:27;;;;;;;9.30;5.40;;;-0.10;1.00;;;;;;5054941;28;20168;-80
2022/01/07 00:43:10;;;;;;;18.48;5.85;;;0.00;1.00;;;;;;5052913;28;20203;-80
2022/01/07 00:45:45;;;;;;;8.00;4.70;;;0.00;1.00;;;;;;5065043;28;20199;-80
2022/01/07 00:48:15;;;;;;;15.02;5.03;;;0.00;1.00;;;;;;5055207;28;20258;-77
2022/01/07 00:50:45;;;;;;;11.88;5.40;;;0.10;1.00;;;;;;5060974;28;20179;-77
2022/01/07 00:53:15;;;;;;;10.35;5.43;;;0.10;1.00;;;;;;5065261;28;20194;-76
2022/01/07 00:55:51;;;;;;;8.52;4.95;;;0.00;1.00;;;;;;5066212;28;20244;-76
2022/01/07 00:58:21;;;;;;;22.67;5.53;;;0.00;1.00;;;;;;5057566;28;20553;-76
2022/01/07 01:00:51;;;;;;;8.95;5.15;;;0.00;1.00;;;;;;5066630;28;20634;-76
2022/01/07 01:03:39;;;;;;;10.13;6.05;;;0.00;1.00;;;;;;5056782;28;20164;-80
2022/01/07 01:06:09;;;;;;;14.85;6.30;;;0.00;1.00;;;;;;5054591;28;20202;-80
2022/01/07 01:08:35;;;;;;;14.70;5.78;;;0.00;1.00;;;;;;5056421;28;20618;-80
2022/01/07 01:11:21;;;;;;;9.53;5.03;;;0.10;1.00;;;;;;5056348;28;20270;-80
2022/01/07 01:13:51;;;;;;;7.38;4.75;;;0.10;1.00;;;;;;5035233;28;20407;-80
2022/01/07 01:16:21;;;;;;;11.65;5.45;;;0.10;1.00;;;;;;5049941;28;20192;-80
2022/01/07 01:19:15;;;;;;;11.23;4.38;;;0.10;1.00;;;;;;5054500;28;20171;-80
2022/01/07 01:21:45;;;;;;;9.65;5.00;;;0.10;1.00;;;;;;5063905;28;20175;-80
2022/01/07 01:24:15;;;;;;;9.32;5.38;;;0.10;1.00;;;;;;5059793;28;20642;-80
2022/01/07 01:26:41;;;;;;;12.50;5.55;;;0.20;1.00;;;;;;5055489;28;20255;-80
2022/01/07 01:29:15;;;;;;;8.97;5.87;;;0.20;1.00;;;;;;5069229;28;20264;-80
2022/01/07 01:31:45;;;;;;;15.20;5.75;;;0.20;1.00;;;;;;5063699;28;20268;-80
2022/01/07 01:34:15;;;;;;;11.63;6.05;;;0.30;1.00;;;;;;5058349;28;20277;-80
2022/01/07 01:36:45;;;;;;;17.67;6.57;;;0.30;1.00;;;;;;5054888;28;20646;-80
2022/01/07 01:39:22;;;;;;;10.98;5.60;;;0.30;1.00;;;;;;5055410;28;20172;-80
2022/01/07 01:41:57;;;;;;;11.70;5.53;;;0.30;1.00;;;;;;5055748;28;20166;-80
2022/01/07 01:44:45;;;;;;;9.05;5.25;;;0.40;1.00;;;;;;5055486;28;20175;-80
2022/01/07 01:47:15;;;;;;;8.45;5.30;;;0.40;1.00;;;;;;5055694;28;20202;-76
2022/01/07 01:49:45;;;;;;;16.63;6.13;;;0.50;1.00;;;;;;5055054;28;20176;-76
2022/01/07 01:52:15;;;;;;;10.25;5.53;;;0.50;1.00;;;;;;5060200;28;20201;-76
2022/01/07 01:54:46;;;;;;;14.02;5.80;;;0.50;1.00;;;;;;5057883;28;20238;-76
2022/01/07 01:57:15;;;;;;;10.80;6.10;;;0.50;1.00;;;;;;5055751;28;20301;-76
2022/01/07 01:59:41;;;;;;;11.40;6.43;;;0.60;1.00;;;;;;5054979;28;20259;-76
2022/01/07 02:02:15;;;;;;;13.07;5.50;;;0.50;1.00;;;;;;5069056;28;20306;-78
2022/01/07 02:04:45;;;;;;;13.63;5.97;;;0.60;1.00;;;;;;5068004;28;20177;-80
2022/01/07 02:07:15;;;;;;;16.70;6.43;;;0.60;1.00;;;;;;5066785;28;20582;-80
2022/01/07 02:09:45;;;;;;;14.80;6.45;;;0.60;1.00;;;;;;5069154;28;20328;-80
2022/01/07 02:12:21;;;;;;;13.07;5.32;;;0.60;1.00;;;;;;5054991;28;20164;-80
2022/01/07 02:14:52;;;;;;;15.55;5.75;;;0.60;1.00;;;;;;5041320;28;20206;-80
2022/01/07 02:17:23;;;;;;;32.72;7.05;;;0.60;1.00;;;;;;5064032;28;20178;-79
2022/01/07 02:19:49;;;;;;;12.63;5.65;;;0.60;1.00;;;;;;5058590;28;20194;-76
2022/01/07 02:22:19;;;;;;;14.60;6.50;;;0.60;1.00;;;;;;5053429;28;20646;-76
2022/01/07 02:24:47;;;;;;;13.80;7.15;;;0.60;1.00;;;;;;5059439;28;20183;-76
2022/01/07 02:27:28;;;;;;;14.10;6.43;;;0.60;1.00;;;;;;5067364;28;20186;-77
2022/01/07 02:29:54;;;;;;;24.80;6.88;;;0.70;1.00;;;;;;5036846;28;20249;-76
2022/01/07 02:32:28;;;;;;;8.13;5.37;;;;;;;;;;5055966;28;20218;-79
2022/01/07 02:34:53;;;;;;;10.63;5.95;;;0.70;1.00;;;;;;5087676;28;20545;-76
2022/01/07 02:37:27;;;;;;;19.87;7.27;;;0.70;1.00;;;;;;5068625;28;20187;-76
2022/01/07 02:39:54;;;;;;;20.75;7.18;;;0.70;1.00;;;;;;5061783;28;20610;-76
2022/01/07 02:42:21;;;;;;;9.93;6.47;;;0.80;1.00;;;;;;5067924;28;20179;-76
2022/01/07 02:44:52;;;;;;;22.65;6.75;;;0.90;1.00;;;;;;5057153;28;20484;-76
2022/01/07 02:47:21;;;;;;;16.17;6.25;;;0.90;1.00;;;;;;5058427;28;20588;-76
2022/01/07 02:50:04;;;;;;;11.73;6.40;;;0.90;1.00;;;;;;5072948;28;20181;-77
2022/01/07 02:52:39;;;;;;;12.55;6.88;;;1.00;1.00;;;;;;5039792;28;20178;-77
2022/01/07 02:55:18;;;;;;;16.75;8.10;;;0.90;1.00;;;;;;5053939;28;20191;-76
2022/01/07 02:57:44;;;;;;;11.50;6.95;;;1.00;1.00;;;;;;5054093;28;20229;-76
2022/01/07 03:00:17;;;;;;;9.03;6.60;;;1.00;1.00;;;;;;5057047;28;20179;-76
2022/01/07 03:02:48;;;;;;;13.77;6.63;;;1.10;1.00;;;;;;5063744;28;20976;-80
2022/01/07 03:05:28;;;;;;;19.23;6.40;;;1.10;1.00;;;;;;5066465;28;20240;-80
2022/01/07 03:07:57;;;;;;;14.32;6.45;;;1.10;1.00;;;;;;5054022;28;20182;-80
2022/01/07 03:10:32;;;;;;;12.68;7.22;;;1.10;1.00;;;;;;5048369;28;20174;-80
2022/01/07 03:13:00;;;;;;;12.75;7.35;;;1.10;1.00;;;;;;5058306;28;20171;-80
2022/01/07 03:15:26;;;;;;;16.20;8.15;;;1.10;1.00;;;;;;5052718;28;20203;-80
2022/01/07 03:17:53;;;;;;;18.05;8.35;;;1.20;1.00;;;;;;5053985;28;20160;-76
2022/01/07 03:20:22;;;;;;;11.32;7.25;;;1.20;1.00;;;;;;5055355;28;20184;-76
2022/01/07 03:22:51;;;;;;;13.55;7.40;;;1.30;1.00;;;;;;5056171;28;20175;-76
2022/01/07 03:25:27;;;;;;;9.48;7.03;;;1.30;1.00;;;;;;5064191;28;20183;-76
2022/01/07 03:28:04;;;;;;;18.38;7.72;;;1.40;1.00;;;;;;5054139;28;20229;-76
2022/01/07 03:30:30;;;;;;;18.17;7.03;;;1.40;1.00;;;;;;5058795;28;20262;-76
2022/01/07 03:33:01;;;;;;;14.00;6.97;;;1.40;1.00;;;;;;5073785;28;20214;-78
2022/01/07 03:35:40;;;;;;;18.35;8.15;;;1.30;1.00;;;;;;5064302;28;20457;-80
2022/01/07 03:38:39;;;;;;;15.48;7.25;;;1.50;1.00;;;;;;5043851;28;20214;-80
2022/01/07 03:41:05;;;;;;;11.77;6.50;;;1.50;1.00;;;;;;5060420;28;20175;-80
2022/01/07 03:43:39;;;;;;;10.00;6.27;;;1.50;1.00;;;;;;5066046;28;20227;-80
2022/01/07 03:46:21;;;;;;;15.70;7.93;;;1.50;1.00;;;;;;5045734;28;20411;-80
2022/01/07 03:48:47;;;;;;;17.05;7.68;;;1.50;1.00;;;;;;5069567;28;20186;-76
2022/01/07 03:51:16;;;;;;;15.80;8.00;;;1.50;1.00;;;;;;5059804;28;20518;-76
2022/01/07 03:53:42;;;;;;;20.45;7.95;;;1.60;1.00;;;;;;5066924;28;20270;-76
2022/01/07 03:56:11;;;;;;;13.77;7.40;;;1.60;1.00;;;;;;5051955;28;20646;-76
2022/01/07 03:58:39;;;;;;;13.40;7.20;;;1.60;1.00;;;;;;5052704;28;20493;-77
2022/01/07 04:01:16;;;;;;;12.70;6.97;;;1.70;1.00;;;;;;5053487;28;20167;-76
2022/01/07 04:03:57;;;;;;;19.73;8.30;;;1.70;1.00;;;;;;5058103;28;20300;-80
2022/01/07 04:06:39;;;;;;;19.08;7.57;;;1.70;1.00;;;;;;5067388;28;20217;-80
2022/01/07 04:09:09;;;;;;;13.27;6.82;;;1.70;1.00;;;;;;5063606;28;20186;-80
2022/01/07 04:11:39;;;;;;;14.57;7.05;;;1.70;1.00;;;;;;5053447;28;20187;-80
2022/01/07 04:14:15;;;;;;;10.95;6.72;;;1.70;1.00;;;;;;5052911;28;20666;-80
2022/01/07 04:16:45;;;;;;;16.88;6.78;;;1.70;1.00;;;;;;5066536;28;20180;-80
2022/01/07 04:19:15;;;;;;;13.23;6.80;;;1.80;1.00;;;;;;5053344;28;20638;-77
2022/01/07 04:21:57;;;;;;;16.60;6.85;;;1.80;1.00;;;;;;5055188;28;20603;-76
2022/01/07 04:24:27;;;;;;;16.50;6.90;;;1.80;1.00;;;;;;5055719;28;20187;-76
2022/01/07 04:26:57;;;;;;;13.32;6.65;;;1.80;1.00;;;;;;5057059;28;20168;-77
2022/01/07 04:29:33;;;;;;;11.13;7.00;;;1.80;1.00;;;;;;5060335;28;20708;-76
2022/01/07 04:32:15;;;;;;;15.77;7.40;;;1.80;1.00;;;;;;5071487;28;20176;-77
2022/01/07 04:34:41;;;;;;;10.95;7.00;;;1.80;1.00;;;;;;5049533;28;20202;-77
2022/01/07 04:37:09;;;;;;;13.17;7.77;;;1.80;1.00;;;;;;5070553;28;20240;-77
2022/01/07 04:40:10;;;;;;;14.77;7.20;;;1.80;1.00;;;;;;5051315;28;20178;-76
2022/01/07 04:42:57;;;;;;;15.30;7.72;;;1.80;1.00;;;;;;5075724;28;20206;-76
2022/01/07 04:45:23;;;;;;;11.32;7.10;;;1.80;1.00;;;;;;5068547;28;20183;-77
2022/01/07 04:47:49;;;;;;;15.73;7.47;;;1.80;1.00;;;;;;5056854;28;20164;-77
2022/01/07 04:50:18;;;;;;;17.03;8.50;;;1.80;1.00;;;;;;5056504;28;20179;-80
2022/01/07 04:52:46;;;;;;;15.07;7.70;;;1.80;1.00;;;;;;5064786;28;20975;-80
2022/01/07 04:55:20;;;;;;;13.50;7.82;;;1.80;1.00;;;;;;5056470;28;20245;-81
2022/01/07 04:58:39;;;;;;;24.25;8.60;;;1.90;1.00;;;;;;5056301;28;20167;-79
2022/01/07 05:04:26;;;;;;;20.15;8.82;;;1.90;1.00;;;;;;5051770;28;20274;-80
2022/01/07 05:07:21;;;;;;;15.70;8.30;;;1.90;1.00;;;;;;5056381;28;20626;-80
2022/01/07 05:09:57;;;;;;;14.88;7.10;;;1.90;1.00;;;;;;5056360;28;20168;-80
2022/01/07 05:12:40;;;;;;;19.38;7.85;;;1.90;1.00;;;;;;5057511;28;20649;-80
2022/01/07 05:15:11;;;;;;;21.67;8.68;;;2.00;1.00;;;;;;5056272;28;20519;-80
2022/01/07 05:17:40;;;;;;;14.10;8.80;;;2.00;1.00;;;;;;5068876;28;20626;-80
2022/01/07 05:20:27;;;;;;;18.40;8.55;;;2.00;1.00;;;;;;5056130;28;20176;-80
2022/01/07 05:22:53;;;;;;;14.32;8.15;;;2.10;1.00;;;;;;5059712;28;20179;-80
2022/01/07 05:25:39;;;;;;;23.20;8.13;;;2.10;1.00;;;;;;5069868;28;20179;-80
2022/01/07 05:28:15;;;;;;;10.55;6.80;;;2.10;1.00;;;;;;5059293;28;20189;-80
2022/01/07 05:30:57;;;;;;;13.57;7.70;;;2.00;1.00;;;;;;5056051;28;20219;-80
2022/01/07 05:33:33;;;;;;;13.65;8.02;;;2.00;1.00;;;;;;5055933;28;20180;-80
2022/01/07 05:36:27;;;;;;;13.05;7.40;;;2.10;1.00;;;;;;5059262;28;20285;-80
2022/01/07 05:38:53;;;;;;;15.35;6.45;;;2.10;1.00;;;;;;5073771;28;20156;-80
2022/01/07 05:41:21;;;;;;;13.87;7.53;;;2.10;1.00;;;;;;5055670;28;20184;-81
2022/01/07 05:43:58;;;;;;;25.20;7.75;;;2.10;1.00;;;;;;5055390;28;20219;-80
2022/01/07 05:46:24;;;;;;;15.70;7.10;;;2.20;1.00;;;;;;5066005;28;20187;-80
2022/01/07 05:49:03;;;;;;;11.57;6.77;;;2.10;1.00;;;;;;5059146;28;20274;-80
2022/01/07 05:51:51;;;;;;;14.90;7.35;;;2.10;1.00;;;;;;5054260;28;20825;-81
2022/01/07 05:54:27;;;;;;;16.83;7.60;;;2.10;1.00;;;;;;5045917;28;20187;-79
2022/01/07 05:57:15;;;;;;;14.80;7.75;;;2.20;1.00;;;;;;5058673;28;20171;-80
2022/01/07 05:59:45;;;;;;;10.02;6.47;;;2.20;1.00;;;;;;5061047;28;20175;-80
2022/01/07 06:02:33;;;;;;;17.70;7.55;;;2.20;1.00;;;;;;5061536;28;20175;-81
2022/01/07 06:04:59;;;;;;;11.32;6.65;;;2.20;1.00;;;;;;5058473;28;20198;-80
2022/01/07 06:07:39;;;;;;;14.20;6.70;;;2.30;1.00;;;;;;5065545;28;20174;-80
2022/01/07 06:10:15;;;;;;;13.38;6.47;;;2.30;1.00;;;;;;5056294;28;20183;-80
2022/01/07 06:12:51;;;;;;;13.77;7.28;;;2.30;1.00;;;;;;5068896;28;20187;-80
2022/01/07 06:16:03;;;;;;;13.75;6.22;;;2.30;1.00;;;;;;5067307;28;20256;-80
2022/01/07 06:18:50;;;;;;;10.93;6.53;;;2.30;1.00;;;;;;5049586;28;20250;-80
2022/01/07 06:21:28;;;;;;;11.05;6.35;;;2.40;1.00;;;;;;5060582;28;20171;-80
2022/01/07 06:24:04;;;;;;;15.20;5.95;;;2.30;1.00;;;;;;5066819;28;20860;-80
2022/01/07 06:26:33;;;;;;;9.80;5.35;;;2.40;1.00;;;;;;5061707;28;20186;-80
2022/01/07 06:29:39;;;;;;;11.82;6.72;;;2.40;1.00;;;;;;5061430;28;20229;-80
2022/01/07 06:32:57;;;;;;;12.15;6.88;;;2.40;1.00;;;;;;5086222;28;20273;-80
2022/01/07 06:35:23;;;;;;;12.90;6.97;;;2.40;1.00;;;;;;5061754;28;20211;-76
2022/01/07 06:37:49;;;;;;;11.60;5.97;;;2.40;1.00;;;;;;5068377;28;20214;-77
2022/01/07 06:40:21;;;;;;;9.43;6.43;;;2.40;1.00;;;;;;5054124;28;20498;-77
2022/01/07 06:43:09;;;;;;;10.38;6.63;;;2.50;1.00;;;;;;5058779;28;20418;-77
2022/01/07 06:45:51;;;;;;;11.20;7.20;;;2.50;1.00;;;;;;5064816;28;20183;-78
2022/01/07 06:48:18;;;;;;;18.23;7.50;;;2.50;1.00;;;;;;5066470;28;20171;-78
2022/01/07 06:50:57;;;;;;;10.10;6.95;;;2.50;1.00;;;;;;5055404;28;20183;-80
2022/01/07 06:53:30;;;;;;;11.35;6.75;;;2.40;1.00;;;;;;5067770;28;20674;-78
2022/01/07 06:56:04;;;;;;;10.13;6.63;;;2.40;1.00;;;;;;5067359;28;20220;-80
2022/01/07 06:58:33;;;;;;;9.85;6.68;;;2.40;1.00;;;;;;5062898;28;20211;-81
2022/01/07 07:01:09;;;;;;;11.40;6.93;;;2.50;1.00;;;;;;5066033;28;20623;-80
2022/01/07 07:03:51;;;;;;;14.70;5.32;;;2.50;1.00;;;;;;5060423;28;20179;-80
2022/01/07 07:06:21;;;;;;;12.43;6.60;;;2.50;1.00;;;;;;5061042;28;20512;-80
2022/01/07 07:09:04;;;;;;;12.07;6.70;;;2.50;1.00;;;;;;5061029;28;20224;-79
2022/01/07 07:11:39;;;;;;;8.07;5.38;;;2.40;1.00;;;;;;5071639;28;20661;-80
2022/01/07 07:14:33;;;;;;;14.73;6.90;;;2.40;1.00;;;;;;5074097;28;20167;-80
2022/01/07 07:17:16;;;;;;;13.25;6.72;;;2.40;1.00;;;;;;5058169;28;20187;-80
2022/01/07 07:19:41;;;;;;;13.55;6.72;;;2.40;1.00;;;;;;5054246;28;20174;-80
2022/01/07 07:22:15;;;;;;;9.63;6.17;;;2.40;1.00;;;;;;5074491;28;20232;-76
2022/01/07 07:24:45;;;;;;;10.23;6.45;;;2.40;1.00;;;;;;5085318;28;20176;-76
2022/01/07 07:27:15;;;;;;;12.18;7.03;;;2.50;1.00;;;;;;5054233;28;20222;-76
2022/01/07 07:29:46;;;;;;;9.00;6.15;;;2.50;1.00;;;;;;5067353;28;20700;-76
2022/01/07 07:32:14;;;;;;;10.85;6.35;;;2.40;1.00;;;;;;5063426;28;20581;-76
2022/01/07 07:37:13;;;;;;;8.10;5.47;;;2.40;1.00;;;;;;5060945;28;20647;-80
2022/01/07 07:39:51;;;;;;;10.02;6.30;;;2.40;1.00;;;;;;5065450;28;20168;-80
2022/01/07 07:42:18;;;;;;;8.93;6.35;;;2.40;1.00;;;;;;5056595;28;20224;-81
2022/01/07 07:45:21;;;;;;;8.63;5.70;;;2.40;1.00;;;;;;5063749;28;20224;-80
2022/01/07 07:47:47;;;;;;;12.32;5.50;;;2.40;1.00;;;;;;5061911;28;20179;-80
2022/01/07 07:50:33;;;;;;;12.57;7.27;;;2.40;1.00;;;;;;5059829;28;20210;-78
2022/01/07 07:52:59;;;;;;;16.33;7.32;;;2.40;1.00;;;;;;5056402;28;21839;-76
2022/01/07 07:55:25;;;;;;;13.30;7.23;;;2.40;1.00;;;;;;5066306;28;20203;-76
2022/01/07 07:57:51;;;;;;;13.77;6.83;;;2.40;1.00;;;;;;5059181;28;20429;-76
2022/01/07 08:00:22;;;;;;;11.03;6.77;;;2.30;1.00;;;;;;5070734;28;20155;-76
2022/01/07 08:02:48;;;;;;;15.20;7.25;;;2.30;1.00;;;;;;5066436;28;20441;-76
2022/01/07 08:05:16;;;;;;;11.80;6.90;;;2.30;1.00;;;;;;5066607;28;20217;-76
2022/01/07 08:08:09;;;;;;;18.83;7.18;;;2.20;1.00;;;;;;5066470;28;20186;-76
2022/01/07 08:10:45;;;;;;;10.73;7.07;;;2.30;1.00;;;;;;5060354;28;20189;-76
2022/01/07 08:15:58;;;;;;;9.83;6.10;;;2.20;1.00;;;;;;5060035;28;20198;-76
2022/01/07 08:18:29;;;;;;;13.32;7.43;;;2.30;1.00;;;;;;5060371;28;20645;-77
2022/01/07 08:21:11;;;;;;;14.27;7.68;;;2.30;1.00;;;;;;5057713;28;20187;-76
2022/01/07 08:23:40;;;;;;;16.55;7.75;;;2.30;1.00;;;;;;5053339;28;20172;-80
2022/01/07 08:26:17;;;;;;;13.30;7.40;;;2.30;1.00;;;;;;5069806;28;20593;-78
2022/01/07 08:28:56;;;;;;;17.17;7.30;;;2.30;1.00;;;;;;5047546;28;20176;-80
2022/01/07 08:37:52;;;;;;;11.52;7.20;;;2.30;1.00;;;;;;5049765;28;20222;-80
2022/01/07 08:40:17;;;;;;;15.38;8.00;;;2.30;1.00;;;;;;5041456;28;20202;-80
2022/01/07 08:42:57;;;;;;;10.67;7.27;;;2.30;1.00;;;;;;5053792;28;20207;-81
2022/01/07 08:45:34;;;;;;;14.50;7.57;;;2.40;1.00;;;;;;5054033;28;20768;-81
2022/01/07 08:48:04;;;;;;;15.82;8.38;;;2.40;1.00;;;;;;5060772;28;20179;-81
2022/01/07 08:50:33;;;;;;;13.68;7.45;;;2.50;1.00;;;;;;5072398;28;20594;-81
2022/01/07 08:53:04;;;;;;;16.58;8.57;;;2.50;1.00;;;;;;5058133;28;20581;-77
2022/01/07 08:55:29;;;;;;;15.45;6.97;;;2.50;1.00;;;;;;5045339;28;20183;-76
2022/01/07 08:57:55;;;;;;;17.27;7.37;;;;;;;;;;5054674;28;20182;-77
2022/01/07 09:00:24;;;;;;;12.53;7.43;;;2.50;1.00;;;;;;5051980;28;20448;-76
2022/01/07 09:03:04;;;;;;;15.30;8.10;;;2.60;1.00;;;;;;5068038;28;20414;-77
2022/01/07 09:05:34;;;;;;;11.23;7.40;;;2.50;1.00;;;;;;5061717;28;20202;-78
2022/01/07 09:07:59;;;;;;;14.90;8.07;;;2.50;1.00;;;;;;5052400;28;20593;-76
2022/01/07 09:10:27;;;;;;;15.40;7.57;;;2.60;1.00;;;;;;5053215;28;20215;-77
2022/01/07 09:12:53;;;;;;;12.98;8.00;;;2.60;1.00;;;;;;5055361;28;20175;-76
2022/01/07 09:15:34;;;;;;;14.47;7.93;;;2.70;1.00;;;;;;5059747;28;20224;-76
2022/01/07 09:18:01;;;;;;;18.02;8.55;;;2.70;1.00;;;;;;5059040;28;20172;-76
2022/01/07 09:20:27;;;;;;;13.30;7.60;;;2.60;1.00;;;;;;5054654;28;20242;-76
2022/01/07 09:22:57;;;;;;;11.07;7.38;;;3.40;1.00;;;;;;5063470;28;20171;-82
2022/01/07 09:25:34;;;;;;;12.73;7.38;;;2.70;1.00;;;;;;5074807;28;20216;-81
2022/01/07 09:28:05;;;;;;;9.88;6.75;;;2.60;1.00;;;;;;5055754;28;20210;-80
2022/01/07 09:30:31;;;;;;;20.65;7.70;;;2.60;1.00;;;;;;5067552;28;20214;-80
2022/01/07 09:32:58;;;;;;;11.30;6.85;;;2.60;1.00;;;;;;5070838;28;20217;-81
2022/01/07 09:35:57;;;;;;;12.77;6.78;;;2.60;1.00;;;;;;5065931;28;20298;-82
2022/01/07 09:39:15;;;;;;;13.15;7.28;;;2.60;1.00;;;;;;5060572;28;20705;-80
2022/01/07 09:41:41;;;;;;;9.63;6.20;;;2.60;1.00;;;;;;5062214;28;20183;-80
2022/01/07 09:44:10;;;;;;;9.10;6.43;;;4.30;1.00;;;;;;5059911;28;20183;-81
2022/01/07 09:46:37;;;;;;;9.93;7.00;;;;;;;;;;5061660;28;20175;-80
2022/01/07 09:49:04;;;;;;;10.57;5.78;;;2.50;1.00;;;;;;5049551;28;20221;-81
2022/01/07 09:51:30;;;;;;;9.60;6.40;;;2.60;1.00;;;;;;5045191;28;20180;-80
2022/01/07 09:53:57;;;;;;;12.55;6.85;;;2.70;1.00;;;;;;5055329;28;20270;-77
2022/01/07 09:56:22;;;;;;;14.40;7.82;;;2.70;1.00;;;;;;5068881;28;20594;-76
2022/01/07 09:58:48;;;;;;;11.97;6.67;;;2.60;1.00;;;;;;5056424;28;20221;-76
2022/01/07 10:01:16;;;;;;;8.47;5.87;;;2.70;1.00;;;;;;5058093;28;20183;-76
2022/01/07 10:03:43;;;;;;;9.40;5.72;;;2.60;1.00;;;;;;5055525;28;20194;-76
2022/01/07 10:06:22;;;;;;;9.75;6.72;;;2.70;1.00;;;;;;5074952;28;20195;-77
2022/01/07 10:09:07;;;;;;;11.80;6.55;;;2.60;1.00;;;;;;5056154;28;20187;-76
2022/01/07 10:11:33;;;;;;;10.32;6.72;;;;;;;;;;5046176;28;20179;-76
2022/01/07 10:14:21;;;;;;;11.20;6.78;;;2.80;1.00;;;;;;5063581;28;20183;-76
2022/01/07 10:16:53;;;;;;;12.07;6.32;;;2.80;1.00;;;;;;5054719;28;20211;-76
2022/01/07 10:19:50;;;;;;;20.45;6.90;;;2.80;1.00;;;;;;5053539;28;20176;-76
2022/01/07 10:22:16;;;;;;;13.77;6.35;;;;;;;;;;4992547;28;20194;-76
2022/01/07 10:24:59;;;;;;;9.00;5.70;;;2.70;1.00;;;;;;5002817;28;20178;-76
2022/01/07 10:27:33;;;;;;;10.35;6.47;;;2.80;1.00;;;;;;5006587;28;20584;-76
2022/01/07 10:29:58;;;;;;;9.85;4.93;;;2.80;1.00;;;;;;5010484;28;20181;-76
2022/01/07 10:32:29;;;;;;;10.07;6.57;;;2.70;1.00;;;;;;4981079;28;20289;-76
2022/01/07 10:35:07;;;;;;;11.57;6.07;;;2.70;1.00;;;;;;5010908;28;20212;-76
2022/01/07 10:37:56;;;;;;;12.40;8.23;;;2.80;1.00;;;;;;4993826;28;20598;-76
2022/01/07 10:40:26;;;;;;;16.60;7.35;;;2.80;1.00;;;;;;4989038;28;20189;-78
2022/01/07 10:43:14;;;;;;;13.20;7.63;;;2.80;1.00;;;;;;5000278;28;20244;-78
2022/01/07 10:45:45;;;;;;;9.77;6.90;;;2.90;1.00;;;;;;4993286;28;20185;-79
2022/01/07 10:48:12;;;;;;;12.65;8.05;;;3.00;1.00;;;;;;4996693;28;20243;-78
2022/01/07 10:50:43;;;;;;;17.00;8.40;;;3.00;1.00;;;;;;5007164;28;20263;-78
2022/01/07 10:53:24;;;;;;;11.10;6.43;;;3.10;1.00;;;;;;5005589;28;20644;-78
2022/01/07 10:55:59;;;;;;;12.80;7.05;;;3.10;1.00;;;;;;4990448;28;20200;-78
2022/01/07 10:58:25;;;;;;;12.60;6.03;;;3.10;1.00;;;;;;5033066;28;20191;-78
2022/01/07 11:00:50;;;;;;;19.03;7.77;;;3.10;1.00;;;;;;5053803;28;20586;-78
2022/01/07 11:03:16;;;;;;;14.40;8.27;;;3.20;1.00;;;;;;5056950;28;20171;-78
2022/01/07 11:05:46;;;;;;;11.93;6.80;;;3.20;1.00;;;;;;5056046;28;20266;-78
2022/01/07 11:08:22;;;;;;;8.38;5.75;;;3.20;1.00;;;;;;5064942;28;20294;-77
2022/01/07 11:10:52;;;;;;;9.60;5.25;;;3.20;1.00;;;;;;5069012;28;20166;-76
2022/01/07 11:13:18;;;;;;;8.10;5.10;;;3.10;1.00;;;;;;5060537;28;20183;-75
2022/01/07 11:19:37;;;;;;;10.80;6.40;;;3.20;1.00;;;;;;5065154;28;20204;-77
2022/01/07 11:22:28;;;;;;;13.40;7.03;;;3.20;1.00;;;;;;5054713;28;20176;-76
2022/01/07 11:25:08;;;;;;;10.55;6.05;;;3.30;1.00;;;;;;5047882;28;20242;-79
2022/01/07 11:27:57;;;;;;;16.73;6.75;;;3.30;1.00;;;;;;5048972;28;20223;-79
2022/01/07 11:30:35;;;;;;;9.13;6.45;;;3.40;1.00;;;;;;5073303;28;20208;-79
2022/01/07 11:33:16;;;;;;;10.75;6.25;;;3.50;1.00;;;;;;5061358;28;20210;-79
2022/01/07 11:35:47;;;;;;;9.45;6.05;;;3.50;1.00;;;;;;5072667;28;20209;-79
2022/01/07 11:38:40;;;;;;;5.80;4.47;;;3.60;1.00;;;;;;5065320;28;20179;-80
2022/01/07 11:41:11;;;;;;;6.22;4.78;;;3.60;1.00;;;;;;5040498;28;20175;-76
2022/01/07 11:43:39;;;;;;;8.13;5.15;;;3.60;1.00;;;;;;5055778;28;20186;-76
2022/01/07 11:46:39;;;;;;;11.95;5.07;;;3.70;1.00;;;;;;5067944;28;20175;-76
2022/01/07 11:49:05;;;;;;;4.68;3.00;;;3.60;1.00;;;;;;5051978;28;20179;-77
2022/01/07 11:51:37;;;;;;;5.38;3.95;;;3.60;1.00;;;;;;5056961;28;20258;-77
2022/01/07 11:54:57;;;;;;;9.32;4.13;;;3.50;1.00;;;;;;5057281;28;20182;-77
2022/01/07 11:57:23;;;;;;;8.68;4.80;;;3.50;1.00;;;;;;5059460;28;20183;-77
2022/01/07 11:59:49;;;;;;;4.87;3.90;;;;;;;;;;5068430;28;20191;-75
2022/01/07 12:02:21;;;;;;;13.55;5.50;;;3.60;1.00;;;;;;5064757;28;20183;-76
2022/01/07 12:05:30;;;;;;;21.17;5.28;;;3.60;1.00;;;;;;5072239;28;20577;-76
2022/01/07 12:07:56;;;;;;;7.63;4.32;;;3.60;1.00;;;;;;5071078;28;20262;-76
2022/01/07 12:10:40;;;;;;;13.33;4.97;;;3.60;1.00;;;;;;5053490;28;20207;-75
2022/01/07 12:13:35;;;;;;;6.13;3.83;;;3.60;1.00;;;;;;5060090;28;20178;-86
2022/01/07 12:16:02;;;;;;;6.35;3.80;;;3.50;1.00;;;;;;5055322;28;20199;-80
2022/01/07 12:18:32;;;;;;;7.18;4.03;;;3.50;1.00;;;;;;5080393;28;20179;-77
2022/01/07 12:21:16;;;;;;;5.50;4.20;;;3.40;1.00;;;;;;5054882;28;20168;-77
2022/01/07 12:23:46;;;;;;;6.15;3.83;;;3.50;1.00;;;;;;5064813;28;20181;-77
2022/01/07 12:26:28;;;;;;;8.83;4.57;;;3.80;1.00;;;;;;5053412;28;20611;-77
2022/01/07 12:28:58;;;;;;;9.57;4.88;;;;;;;;;;5069248;28;20448;-79
2022/01/07 12:31:35;;;;;;;10.20;4.53;;;4.30;1.00;;;;;;5063074;28;20255;-77
2022/01/07 12:34:00;;;;;;;5.85;4.30;;;4.30;1.00;;;;;;5063778;28;20184;-77
2022/01/07 12:36:35;;;;;;;7.03;4.03;;;4.30;1.00;;;;;;5065226;28;20615;-78
2022/01/07 12:39:07;;;;;;;12.45;5.03;;;4.20;1.00;;;;;;5047218;28;20182;-77
2022/01/07 12:41:35;;;;;;;4.07;3.20;;;4.20;1.00;;;;;;5072295;28;20183;-78
2022/01/07 12:44:13;;;;;;;6.85;3.72;;;4.20;1.00;;;;;;5053570;28;20399;-77
2022/01/07 12:46:54;;;;;;;3.40;3.05;;;4.10;1.00;;;;;;5073352;28;20187;-77
2022/01/07 12:49:31;;;;;;;4.13;3.60;;;4.10;1.00;;;;;;5064680;28;20176;-77
2022/01/07 12:52:05;;;;;;;9.57;3.63;;;4.20;1.00;;;;;;5076990;28;20508;-77
2022/01/07 12:54:52;;;;;;;6.35;3.40;;;4.10;1.00;;;;;;5062461;28;20873;-79
2022/01/07 12:57:46;;;;;;;6.73;4.37;;;4.10;1.00;;;;;;5058468;28;20261;-80
2022/01/07 13:00:39;;;;;;;3.72;3.30;;;4.10;1.00;;;;;;5040671;28;20885;-79
2022/01/07 13:03:26;;;;;;;7.07;3.95;;;4.10;1.00;;;;;;5070113;28;20534;-80
2022/01/07 13:06:04;;;;;;;4.10;3.70;;;4.00;1.00;;;;;;5070076;28;20267;-80
2022/01/07 13:08:40;;;;;;;6.05;4.07;;;4.00;1.00;;;;;;5067157;28;20492;-80
2022/01/07 13:11:10;;;;;;;7.68;3.85;;;3.90;1.00;;;;;;5063786;28;20228;-77
2022/01/07 13:13:46;;;;;;;12.88;3.40;;;3.90;1.00;;;;;;5065199;28;20217;-77
2022/01/07 13:16:19;;;;;;;6.03;3.63;;;3.90;1.00;;;;;;5070018;28;20286;-77
2022/01/07 13:18:52;;;;;;;5.80;3.25;;;3.90;1.00;;;;;;5068879;28;20189;-77
2022/01/07 13:21:22;;;;;;;4.80;3.05;;;3.90;1.00;;;;;;5052427;28;20524;-77
2022/01/07 13:23:50;;;;;;;3.55;3.15;;;3.80;1.00;;;;;;5062611;28;20179;-77
2022/01/07 13:26:30;;;;;;;3.85;2.97;;;3.80;1.00;;;;;;5075475;28;20244;-79
2022/01/07 13:29:25;;;;;;;3.22;2.92;;;3.90;1.00;;;;;;5062546;28;20747;-79
2022/01/07 13:32:22;;;;;;;4.63;3.40;;;3.90;1.00;;;;;;5013307;28;20232;-80
2022/01/07 13:34:49;;;;;;;5.85;3.30;;;3.90;1.00;;;;;;5001855;28;20186;-80
2022/01/07 13:37:22;;;;;;;3.28;2.97;;;3.90;1.00;;;;;;5007660;28;20201;-80
2022/01/07 13:39:59;;;;;;;7.57;4.03;;;3.80;1.00;;;;;;5008202;28;20632;-80
2022/01/07 13:42:40;;;;;;;4.00;3.40;;;3.90;1.00;;;;;;5005792;28;20185;-80
2022/01/07 13:45:06;;;;;;;5.57;3.67;;;3.90;1.00;;;;;;5007363;28;20268;-80
2022/01/07 13:47:46;;;;;;;6.55;3.22;;;4.00;1.00;;;;;;4983826;28;20675;-80
2022/01/07 13:50:19;;;;;;;5.45;3.15;;;4.00;1.00;;;;;;5000203;28;20193;-80
2022/01/07 13:52:46;;;;;;;3.30;3.00;;;4.00;1.00;;;;;;5005335;28;20192;-78
2022/01/07 13:55:33;;;;;;;3.90;3.40;;;4.00;1.00;;;;;;5004255;28;20591;-79
2022/01/07 13:58:18;;;;;;;5.13;3.35;;;4.20;1.00;;;;;;5001788;28;20449;-79
2022/01/07 14:01:05;;;;;;;3.77;3.37;;;4.10;1.00;;;;;;4994274;28;20162;-81
2022/01/07 14:03:51;;;;;;;5.20;3.80;;;4.20;1.00;;;;;;5011142;28;20407;-79